createdAt,value
2019-04-30T00:00:01.953Z,99880.00
2019-04-30T00:02:39.862Z,99886.00
2019-04-30T00:05:10.105Z,99877.00
2019-04-30T00:07:38.215Z,99877.00
2019-04-30T00:10:09.077Z,99876.00
2019-04-30T00:12:39.674Z,99868.00
2019-04-30T00:15:11.020Z,99859.00
2019-04-30T00:17:40.217Z,99863.00
2019-04-30T00:20:09.664Z,99858.00
2019-04-30T00:22:46.550Z,99853.00
2019-04-30T00:25:10.328Z,99847.00
2019-04-30T00:27:39.854Z,99862.00
2019-04-30T00:30:09.250Z,99849.00
2019-04-30T00:32:43.518Z,99853.00
2019-04-30T00:35:11.848Z,99851.00
2019-04-30T00:37:41.106Z,99852.00
2019-04-30T00:40:10.565Z,99849.00
2019-04-30T00:42:39.995Z,99848.00
2019-04-30T00:45:10.889Z,99850.00
2019-04-30T00:47:46.470Z,99837.00
2019-04-30T00:50:12.395Z,99845.00
2019-04-30T00:52:41.815Z,99839.00
2019-04-30T00:55:11.102Z,99835.00
2019-04-30T00:57:43.642Z,99846.00
2019-04-30T01:00:19.616Z,99848.00
2019-04-30T01:02:52.115Z,99844.00
2019-04-30T01:05:22.321Z,99848.00
2019-04-30T01:07:51.987Z,99853.00
2019-04-30T01:10:24.714Z,99840.00
2019-04-30T01:12:52.826Z,99834.00
2019-04-30T01:15:22.229Z,99833.00
2019-04-30T01:17:53.688Z,99830.00
2019-04-30T01:20:31.069Z,99831.00
2019-04-30T01:22:56.279Z,99836.00
2019-04-30T01:25:25.464Z,99844.00
2019-04-30T01:27:55.399Z,99835.00
2019-04-30T01:30:24.625Z,99837.00
2019-04-30T01:32:56.612Z,99832.00
2019-04-30T01:35:29.032Z,99829.00
2019-04-30T01:37:56.440Z,99826.00
2019-04-30T01:40:25.619Z,99827.00
2019-04-30T01:42:55.012Z,99825.00
2019-04-30T01:45:28.172Z,99827.00
2019-04-30T01:48:00.613Z,99836.00
2019-04-30T01:50:26.113Z,99828.00
2019-04-30T01:52:55.351Z,99823.00
2019-04-30T01:55:30.267Z,99825.00
2019-04-30T01:58:08.677Z,99823.00
2019-04-30T02:00:41.937Z,99834.00
2019-04-30T02:03:11.374Z,99833.00
2019-04-30T02:05:40.762Z,99840.00
2019-04-30T02:08:10.148Z,99840.00
2019-04-30T02:10:40.369Z,99841.00
2019-04-30T02:13:10.177Z,99844.00
2019-04-30T02:15:39.660Z,99837.00
2019-04-30T02:18:09.055Z,99847.00
2019-04-30T02:20:38.456Z,99839.00
2019-04-30T02:23:09.654Z,99844.00
2019-04-30T02:25:39.920Z,99845.00
2019-04-30T02:28:09.121Z,99850.00
2019-04-30T02:30:40.505Z,99844.00
2019-04-30T02:33:09.790Z,99848.00
2019-04-30T02:35:53.022Z,99840.00
2019-04-30T02:38:30.327Z,99844.00
2019-04-30T02:41:00.559Z,99849.00
2019-04-30T02:43:32.951Z,99842.00
2019-04-30T02:46:04.393Z,99847.00
2019-04-30T02:48:34.476Z,99846.00
2019-04-30T02:51:04.450Z,99839.00
2019-04-30T02:54:03.707Z,99845.00
2019-04-30T02:56:33.349Z,99844.00
2019-04-30T02:59:03.757Z,99851.00
2019-04-30T03:01:33.265Z,99848.00
2019-04-30T03:04:02.406Z,99850.00
2019-04-30T03:06:31.595Z,99846.00
2019-04-30T03:09:01.408Z,99842.00
2019-04-30T03:11:30.943Z,99847.00
2019-04-30T03:14:00.708Z,99845.00
2019-04-30T03:16:32.170Z,99840.00
2019-04-30T03:19:21.130Z,99838.00
2019-04-30T03:22:00.177Z,99850.00
2019-04-30T03:24:29.582Z,99849.00
2019-04-30T03:26:59.496Z,99843.00
2019-04-30T03:29:30.372Z,99850.00
2019-04-30T03:32:02.486Z,99855.00
2019-04-30T03:34:32.463Z,99849.00
2019-04-30T03:37:02.309Z,99852.00
2019-04-30T03:39:34.009Z,99845.00
2019-04-30T03:42:03.027Z,99862.00
2019-04-30T03:44:32.871Z,99850.00
2019-04-30T03:47:02.076Z,99852.00
2019-04-30T03:49:31.488Z,99856.00
2019-04-30T03:52:01.276Z,99850.00
2019-04-30T03:54:30.457Z,99866.00
2019-04-30T03:57:01.092Z,99860.00
2019-04-30T03:59:30.639Z,99869.00
2019-04-30T04:02:01.745Z,99869.00
2019-04-30T04:04:32.950Z,99866.00
2019-04-30T04:07:16.275Z,99871.00
2019-04-30T04:09:53.293Z,99878.00
2019-04-30T04:12:23.867Z,99874.00
2019-04-30T04:14:53.447Z,99876.00
2019-04-30T04:17:23.596Z,99869.00
2019-04-30T04:19:53.107Z,99881.00
2019-04-30T04:22:22.741Z,99889.00
2019-04-30T04:24:52.416Z,99885.00
2019-04-30T04:27:21.672Z,99887.00
2019-04-30T04:29:51.571Z,99894.00
2019-04-30T04:32:24.228Z,99901.00
2019-04-30T04:34:52.297Z,99888.00
2019-04-30T04:37:21.686Z,99891.00
2019-04-30T04:39:51.090Z,99889.00
2019-04-30T04:42:20.595Z,99903.00
2019-04-30T04:44:51.214Z,99897.00
2019-04-30T04:47:20.745Z,99903.00
2019-04-30T04:49:53.569Z,99899.00
2019-04-30T04:52:21.984Z,99905.00
2019-04-30T04:54:51.633Z,99900.00
2019-04-30T04:57:22.754Z,99902.00
2019-04-30T04:59:51.815Z,99906.00
2019-04-30T05:02:39.671Z,99907.00
2019-04-30T05:05:09.869Z,99924.00
2019-04-30T05:07:39.950Z,99923.00
2019-04-30T05:10:09.870Z,99916.00
2019-04-30T05:12:39.891Z,99923.00
2019-04-30T05:15:10.212Z,99933.00
2019-04-30T05:17:39.954Z,99929.00
2019-04-30T05:20:10.450Z,99934.00
2019-04-30T05:22:39.858Z,99927.00
2019-04-30T05:25:09.947Z,99929.00
2019-04-30T05:27:39.453Z,99933.00
2019-04-30T05:30:12.049Z,99939.00
2019-04-30T05:32:40.557Z,99940.00
2019-04-30T05:35:10.220Z,99946.00
2019-04-30T05:37:39.622Z,99952.00
2019-04-30T05:40:09.385Z,99945.00
2019-04-30T05:42:38.898Z,99953.00
2019-04-30T05:45:09.636Z,99956.00
2019-04-30T05:47:39.165Z,99952.00
2019-04-30T05:50:09.290Z,99955.00
2019-04-30T05:52:39.765Z,99956.00
2019-04-30T05:55:09.872Z,99962.00
2019-04-30T05:57:52.780Z,99962.00
2019-04-30T06:00:11.128Z,99974.00
2019-04-30T06:02:41.007Z,99972.00
2019-04-30T06:05:10.357Z,99968.00
2019-04-30T06:07:39.767Z,99975.00
2019-04-30T06:10:26.636Z,99970.00
2019-04-30T06:12:59.324Z,99980.00
2019-04-30T06:15:48.882Z,99974.00
2019-04-30T06:18:18.528Z,99979.00
2019-04-30T06:20:48.953Z,99985.00
2019-04-30T06:23:19.514Z,99979.00
2019-04-30T06:25:57.477Z,99976.00
2019-04-30T06:28:22.083Z,99987.00
2019-04-30T06:30:52.038Z,99986.00
2019-04-30T06:33:21.625Z,99992.00
2019-04-30T06:35:52.177Z,99998.00
2019-04-30T06:38:21.681Z,99997.00
2019-04-30T06:40:51.066Z,99997.00
2019-04-30T06:43:20.668Z,100001.00
2019-04-30T06:45:51.276Z,100000.00
2019-04-30T06:48:21.526Z,100005.00
2019-04-30T06:50:51.186Z,99998.00
2019-04-30T06:53:20.341Z,99994.00
2019-04-30T06:55:50.137Z,99995.00
2019-04-30T06:58:20.490Z,100001.00
2019-04-30T07:00:49.845Z,100003.00
2019-04-30T07:03:19.366Z,99994.00
2019-04-30T07:05:48.991Z,100005.00
2019-04-30T07:08:39.780Z,100003.00
2019-04-30T07:11:26.930Z,100008.00
2019-04-30T07:13:56.439Z,100003.00
2019-04-30T07:16:25.630Z,100009.00
2019-04-30T07:18:55.045Z,100012.00
2019-04-30T07:21:24.444Z,100011.00
2019-04-30T07:23:54.831Z,100007.00
2019-04-30T07:26:24.862Z,100015.00
2019-04-30T07:28:55.220Z,100018.00
2019-04-30T07:31:25.387Z,100013.00
2019-04-30T07:33:54.829Z,100027.00
2019-04-30T07:36:42.486Z,100019.00
2019-04-30T07:38:56.764Z,100022.00
2019-04-30T07:41:26.405Z,100020.00
2019-04-30T07:43:56.311Z,100026.00
2019-04-30T07:46:25.549Z,100032.00
2019-04-30T07:48:54.734Z,100015.00
2019-04-30T07:51:24.830Z,100020.00
2019-04-30T07:53:54.232Z,100022.00
2019-04-30T07:56:28.174Z,100028.00
2019-04-30T07:58:54.551Z,100037.00
2019-04-30T08:01:24.117Z,100033.00
2019-04-30T08:03:59.001Z,100024.00
2019-04-30T08:06:31.139Z,100025.00
2019-04-30T08:09:01.306Z,100032.00
2019-04-30T08:11:34.466Z,100036.00
2019-04-30T08:14:02.946Z,100025.00
2019-04-30T08:16:32.602Z,100032.00
2019-04-30T08:19:01.735Z,100035.00
2019-04-30T08:21:31.578Z,100033.00
2019-04-30T08:24:01.202Z,100032.00
2019-04-30T08:26:30.604Z,100032.00
2019-04-30T08:29:00.045Z,100037.00
2019-04-30T08:31:29.472Z,100033.00
2019-04-30T08:33:59.239Z,100033.00
2019-04-30T08:36:29.795Z,100024.00
2019-04-30T08:38:59.819Z,100026.00
2019-04-30T08:41:29.501Z,100019.00
2019-04-30T08:43:59.805Z,100028.00
2019-04-30T08:46:29.175Z,100026.00
2019-04-30T08:48:58.900Z,100018.00
2019-04-30T08:51:30.301Z,100024.00
2019-04-30T08:53:59.291Z,100028.00
2019-04-30T08:56:29.515Z,100024.00
2019-04-30T08:58:59.425Z,100029.00
2019-04-30T09:01:29.508Z,100025.00
2019-04-30T09:03:59.689Z,100025.00
2019-04-30T09:06:31.062Z,100032.00
2019-04-30T09:09:01.466Z,100030.00
2019-04-30T09:11:38.527Z,100038.00
2019-04-30T09:14:01.811Z,100034.00
2019-04-30T09:16:31.009Z,100027.00
2019-04-30T09:19:00.181Z,100025.00
2019-04-30T09:21:30.128Z,100029.00
2019-04-30T09:23:59.648Z,100029.00
2019-04-30T09:26:30.909Z,100028.00
2019-04-30T09:29:00.460Z,100027.00
2019-04-30T09:31:29.911Z,100031.00
2019-04-30T09:34:00.883Z,100021.00
2019-04-30T09:36:30.459Z,100014.00
2019-04-30T09:39:01.526Z,100016.00
2019-04-30T09:41:30.859Z,100012.00
2019-04-30T09:44:00.391Z,100004.00
2019-04-30T09:46:30.086Z,100007.00
2019-04-30T09:48:59.914Z,100015.00
2019-04-30T09:51:30.831Z,100005.00
2019-04-30T09:54:03.634Z,100010.00
2019-04-30T09:56:32.151Z,100010.00
2019-04-30T09:59:03.303Z,100004.00
2019-04-30T10:01:33.407Z,100006.00
2019-04-30T10:04:02.900Z,100001.00
2019-04-30T10:06:39.526Z,100003.00
2019-04-30T10:09:03.853Z,99988.00
2019-04-30T10:11:43.987Z,99992.00
2019-04-30T10:14:13.895Z,99985.00
2019-04-30T10:16:53.232Z,99988.00
2019-04-30T10:19:24.897Z,99992.00
2019-04-30T10:21:58.864Z,99996.00
2019-04-30T10:24:29.448Z,99990.00
2019-04-30T10:26:59.598Z,99989.00
2019-04-30T10:29:29.987Z,99983.00
2019-04-30T10:32:05.167Z,99967.00
2019-04-30T10:34:37.501Z,99972.00
2019-04-30T10:37:08.951Z,99972.00
2019-04-30T10:39:42.747Z,99968.00
2019-04-30T10:42:20.003Z,99963.00
2019-04-30T10:44:49.545Z,99966.00
2019-04-30T10:47:19.405Z,99968.00
2019-04-30T10:49:49.935Z,99968.00
2019-04-30T10:52:19.303Z,99967.00
2019-04-30T10:54:49.659Z,99966.00
2019-04-30T10:57:22.918Z,99978.00
2019-04-30T10:59:52.497Z,99970.00
2019-04-30T11:02:22.280Z,99972.00
2019-04-30T11:04:51.838Z,99976.00
2019-04-30T11:07:21.228Z,99975.00
2019-04-30T11:09:50.764Z,99979.00
2019-04-30T11:12:20.054Z,99981.00
2019-04-30T11:14:49.804Z,99975.00
2019-04-30T11:17:19.748Z,99979.00
2019-04-30T11:19:49.658Z,99980.00
2019-04-30T11:22:19.443Z,99972.00
2019-04-30T11:24:58.746Z,99972.00
2019-04-30T11:27:20.664Z,99969.00
2019-04-30T11:29:50.894Z,99954.00
2019-04-30T11:32:22.633Z,99960.00
2019-04-30T11:34:54.130Z,99955.00
2019-04-30T11:37:24.167Z,99953.00
2019-04-30T11:39:53.408Z,99953.00
2019-04-30T11:42:22.763Z,99953.00
2019-04-30T11:44:52.211Z,99945.00
2019-04-30T11:47:26.153Z,99961.00
2019-04-30T11:49:55.674Z,99950.00
2019-04-30T11:52:25.163Z,99967.00
2019-04-30T11:54:54.855Z,99964.00
2019-04-30T11:57:24.526Z,99967.00
2019-04-30T11:59:54.011Z,99957.00
2019-04-30T12:02:26.287Z,99949.00
2019-04-30T12:04:56.053Z,99933.00
2019-04-30T12:07:39.011Z,99934.00
2019-04-30T12:10:13.632Z,99943.00
2019-04-30T12:12:43.126Z,99944.00
2019-04-30T12:15:12.508Z,99944.00
2019-04-30T12:17:41.691Z,99931.00
2019-04-30T12:20:11.214Z,99929.00
2019-04-30T12:22:40.412Z,99931.00
2019-04-30T12:25:10.144Z,99937.00
2019-04-30T12:27:39.585Z,99938.00
2019-04-30T12:30:09.098Z,99935.00
2019-04-30T12:32:39.280Z,99930.00
2019-04-30T12:35:08.960Z,99921.00
2019-04-30T12:37:39.053Z,99927.00
2019-04-30T12:40:18.706Z,99928.00
2019-04-30T12:42:40.628Z,99918.00
2019-04-30T12:45:09.916Z,99916.00
2019-04-30T12:47:40.699Z,99911.00
2019-04-30T12:50:20.574Z,99910.00
2019-04-30T12:52:59.298Z,99912.00
2019-04-30T12:55:41.858Z,99925.00
2019-04-30T12:58:11.119Z,99912.00
2019-04-30T13:00:40.497Z,99916.00
2019-04-30T13:03:09.987Z,99904.00
2019-04-30T13:05:39.656Z,99899.00
2019-04-30T13:08:09.963Z,99899.00
2019-04-30T13:10:40.368Z,99896.00
2019-04-30T13:13:10.467Z,99886.00
2019-04-30T13:15:40.280Z,99883.00
2019-04-30T13:18:09.745Z,99881.00
2019-04-30T13:20:39.271Z,99881.00
2019-04-30T13:23:11.768Z,99874.00
2019-04-30T13:25:50.834Z,99873.00
2019-04-30T13:28:13.697Z,99867.00
2019-04-30T13:30:43.215Z,99875.00
2019-04-30T13:33:14.477Z,99867.00
2019-04-30T13:35:43.845Z,99867.00
2019-04-30T13:38:20.630Z,99862.00
2019-04-30T13:40:52.023Z,99866.00
2019-04-30T13:43:23.099Z,99862.00
2019-04-30T13:45:52.286Z,99863.00
2019-04-30T13:48:21.440Z,99859.00
2019-04-30T13:50:50.855Z,99853.00
2019-04-30T13:53:20.376Z,99845.00
2019-04-30T13:55:49.585Z,99857.00
2019-04-30T13:58:19.193Z,99847.00
2019-04-30T14:00:49.467Z,99845.00
2019-04-30T14:03:26.855Z,99848.00
2019-04-30T14:05:56.635Z,99843.00
2019-04-30T14:08:30.276Z,99845.00
2019-04-30T14:10:59.913Z,99846.00
2019-04-30T14:13:29.438Z,99837.00
2019-04-30T14:15:58.927Z,99842.00
2019-04-30T14:18:33.802Z,99840.00
2019-04-30T14:21:01.010Z,99840.00
2019-04-30T14:23:30.608Z,99844.00
2019-04-30T14:26:01.141Z,99828.00
2019-04-30T14:28:30.687Z,99836.00
2019-04-30T14:31:00.681Z,99834.00
2019-04-30T14:33:29.857Z,99826.00
2019-04-30T14:36:00.810Z,99833.00
2019-04-30T14:38:31.163Z,99828.00
2019-04-30T14:41:01.562Z,99827.00
2019-04-30T14:43:37.769Z,99826.00
2019-04-30T14:46:20.890Z,99826.00
2019-04-30T14:49:09.766Z,99822.00
2019-04-30T14:51:29.969Z,99821.00
2019-04-30T14:54:20.004Z,99821.00
2019-04-30T14:56:51.450Z,99824.00
2019-04-30T14:59:39.213Z,99812.00
2019-04-30T15:02:10.461Z,99809.00
2019-04-30T15:04:40.005Z,99811.00
2019-04-30T15:07:09.750Z,99801.00
2019-04-30T15:09:39.293Z,99811.00
2019-04-30T15:12:09.723Z,99809.00
2019-04-30T15:14:41.032Z,99807.00
2019-04-30T15:17:10.598Z,99810.00
2019-04-30T15:19:39.755Z,99807.00
2019-04-30T15:22:09.322Z,99801.00
2019-04-30T15:24:40.071Z,99810.00
2019-04-30T15:27:09.444Z,99806.00
2019-04-30T15:29:39.359Z,99802.00
2019-04-30T15:32:08.880Z,99805.00
2019-04-30T15:34:39.983Z,99799.00
2019-04-30T15:37:19.002Z,99798.00
2019-04-30T15:39:41.093Z,99795.00
2019-04-30T15:42:10.888Z,99797.00
2019-04-30T15:44:42.687Z,99805.00
2019-04-30T15:47:11.740Z,99803.00
2019-04-30T15:49:41.526Z,99803.00
2019-04-30T15:52:12.269Z,99812.00
2019-04-30T15:54:41.731Z,99807.00
2019-04-30T15:57:11.252Z,99801.00
2019-04-30T15:59:41.409Z,99810.00
2019-04-30T16:02:15.293Z,99802.00
2019-04-30T16:04:55.048Z,99806.00
2019-04-30T16:07:24.542Z,99792.00
2019-04-30T16:10:04.360Z,99797.00
2019-04-30T16:12:40.997Z,99796.00
2019-04-30T16:15:10.630Z,99802.00
2019-04-30T16:17:41.691Z,99799.00
2019-04-30T16:20:11.314Z,99796.00
2019-04-30T16:22:41.115Z,99789.00
2019-04-30T16:25:10.275Z,99792.00
2019-04-30T16:27:39.657Z,99790.00
2019-04-30T16:30:09.569Z,99791.00
2019-04-30T16:32:38.990Z,99791.00
2019-04-30T16:35:08.983Z,99786.00
2019-04-30T16:37:38.812Z,99782.00
2019-04-30T16:40:10.454Z,99775.00
2019-04-30T16:42:39.873Z,99782.00
2019-04-30T16:45:09.700Z,99784.00
2019-04-30T16:47:39.145Z,99774.00
2019-04-30T16:50:09.298Z,99777.00
2019-04-30T16:52:39.354Z,99774.00
2019-04-30T16:55:08.973Z,99777.00
2019-04-30T16:57:39.688Z,99776.00
2019-04-30T17:00:10.539Z,99779.00
2019-04-30T17:02:41.342Z,99776.00
2019-04-30T17:05:24.195Z,99767.00
2019-04-30T17:07:59.272Z,99769.00
2019-04-30T17:10:32.565Z,99763.00
2019-04-30T17:13:15.777Z,99761.00
2019-04-30T17:15:46.522Z,99762.00
2019-04-30T17:18:15.626Z,99764.00
2019-04-30T17:20:45.053Z,99770.00
2019-04-30T17:23:14.382Z,99758.00
2019-04-30T17:25:43.573Z,99761.00
2019-04-30T17:28:12.941Z,99758.00
2019-04-30T17:30:42.050Z,99765.00
2019-04-30T17:33:11.124Z,99769.00
2019-04-30T17:35:40.212Z,99763.00
2019-04-30T17:38:09.542Z,99764.00
2019-04-30T17:40:39.202Z,99763.00
2019-04-30T17:43:08.609Z,99767.00
2019-04-30T17:45:39.192Z,99764.00
2019-04-30T17:48:08.587Z,99754.00
2019-04-30T17:50:39.629Z,99754.00
2019-04-30T17:53:09.398Z,99748.00
2019-04-30T17:55:39.213Z,99742.00
2019-04-30T17:58:09.834Z,99747.00
2019-04-30T18:00:40.948Z,99748.00
2019-04-30T18:03:10.971Z,99748.00
2019-04-30T18:05:40.390Z,99742.00
2019-04-30T18:08:09.709Z,99753.00
2019-04-30T18:10:39.356Z,99749.00
2019-04-30T18:13:08.420Z,99751.00
2019-04-30T18:15:37.760Z,99745.00
2019-04-30T18:18:08.496Z,99744.00
2019-04-30T18:20:42.045Z,99752.00
2019-04-30T18:23:29.277Z,99748.00
2019-04-30T18:26:00.016Z,99750.00
2019-04-30T18:28:29.372Z,99746.00
2019-04-30T18:30:59.033Z,99750.00
2019-04-30T18:33:28.500Z,99743.00
2019-04-30T18:35:59.649Z,99742.00
2019-04-30T18:38:31.040Z,99747.00
2019-04-30T18:41:00.555Z,99741.00
2019-04-30T18:43:29.773Z,99752.00
2019-04-30T18:46:00.692Z,99748.00
2019-04-30T18:48:30.109Z,99750.00
2019-04-30T18:50:59.210Z,99740.00
2019-04-30T18:53:30.184Z,99745.00
2019-04-30T18:55:59.598Z,99741.00
2019-04-30T18:58:39.199Z,99744.00
2019-04-30T19:00:59.985Z,99752.00
2019-04-30T19:03:29.376Z,99744.00
2019-04-30T19:06:03.002Z,99736.00
2019-04-30T19:08:36.507Z,99747.00
2019-04-30T19:11:08.965Z,99752.00
2019-04-30T19:13:40.377Z,99761.00
2019-04-30T19:16:25.225Z,99753.00
2019-04-30T19:18:55.735Z,99747.00
2019-04-30T19:21:25.205Z,99758.00
2019-04-30T19:23:54.570Z,99757.00
2019-04-30T19:26:23.965Z,99754.00
2019-04-30T19:28:53.381Z,99757.00
2019-04-30T19:31:22.536Z,99752.00
2019-04-30T19:33:51.900Z,99747.00
2019-04-30T19:36:33.887Z,99749.00
2019-04-30T19:38:52.536Z,99751.00
2019-04-30T19:41:21.999Z,99754.00
2019-04-30T19:43:51.381Z,99743.00
2019-04-30T19:46:20.817Z,99750.00
2019-04-30T19:48:50.717Z,99749.00
2019-04-30T19:51:20.149Z,99748.00
2019-04-30T19:53:49.528Z,99756.00
2019-04-30T19:56:20.574Z,99745.00
2019-04-30T19:59:01.473Z,99747.00
2019-04-30T20:01:20.825Z,99749.00
2019-04-30T20:03:50.246Z,99743.00
2019-04-30T20:06:19.610Z,99748.00
2019-04-30T20:08:48.713Z,99750.00
2019-04-30T20:11:18.096Z,99751.00
2019-04-30T20:13:48.896Z,99743.00
2019-04-30T20:16:19.579Z,99742.00
2019-04-30T20:18:49.239Z,99749.00
2019-04-30T20:21:27.894Z,99754.00
2019-04-30T20:23:51.572Z,99743.00
2019-04-30T20:26:20.899Z,99742.00
2019-04-30T20:28:50.029Z,99737.00
2019-04-30T20:31:19.372Z,99740.00
2019-04-30T20:33:49.082Z,99743.00
2019-04-30T20:36:19.009Z,99735.00
2019-04-30T20:39:01.975Z,99740.00
2019-04-30T20:41:33.229Z,99744.00
2019-04-30T20:44:02.867Z,99739.00
2019-04-30T20:46:35.135Z,99737.00
2019-04-30T20:49:02.716Z,99733.00
2019-04-30T20:51:32.074Z,99734.00
2019-04-30T20:54:01.421Z,99727.00
2019-04-30T20:56:30.843Z,99733.00
2019-04-30T20:59:05.218Z,99729.00
2019-04-30T21:01:31.228Z,99742.00
2019-04-30T21:04:00.565Z,99742.00
2019-04-30T21:06:30.076Z,99729.00
2019-04-30T21:08:59.398Z,99726.00
2019-04-30T21:11:28.820Z,99727.00
2019-04-30T21:13:59.072Z,99728.00
2019-04-30T21:16:28.548Z,99728.00
2019-04-30T21:18:57.945Z,99725.00
2019-04-30T21:21:28.748Z,99728.00
2019-04-30T21:23:58.132Z,99737.00
2019-04-30T21:26:27.490Z,99732.00
2019-04-30T21:29:00.798Z,99732.00
2019-04-30T21:31:29.195Z,99736.00
2019-04-30T21:34:05.889Z,99736.00
2019-04-30T21:36:35.092Z,99729.00
2019-04-30T21:39:06.433Z,99733.00
2019-04-30T21:41:35.860Z,99734.00
2019-04-30T21:44:05.291Z,99733.00
2019-04-30T21:46:36.978Z,99724.00
2019-04-30T21:49:05.176Z,99712.00
2019-04-30T21:51:34.285Z,99717.00
2019-04-30T21:54:03.805Z,99721.00
2019-04-30T21:56:32.961Z,99710.00
2019-04-30T21:59:02.308Z,99718.00
2019-04-30T22:01:32.248Z,99714.00
2019-04-30T22:04:01.667Z,99712.00
2019-04-30T22:06:31.030Z,99710.00
2019-04-30T22:09:00.380Z,99707.00
2019-04-30T22:11:29.819Z,99709.00
2019-04-30T22:13:58.879Z,99704.00
2019-04-30T22:16:29.748Z,99716.00
2019-04-30T22:18:59.128Z,99709.00
2019-04-30T22:21:28.295Z,99706.00
2019-04-30T22:23:58.976Z,99708.00
2019-04-30T22:26:28.331Z,99708.00
2019-04-30T22:28:59.230Z,99706.00
2019-04-30T22:31:29.634Z,99700.00
2019-04-30T22:33:59.022Z,99698.00
2019-04-30T22:36:30.047Z,99705.00
2019-04-30T22:39:12.087Z,99700.00
2019-04-30T22:41:40.757Z,99690.00
2019-04-30T22:44:10.157Z,99695.00
2019-04-30T22:46:39.513Z,99687.00
2019-04-30T22:49:09.151Z,99691.00
2019-04-30T22:51:38.503Z,99695.00
2019-04-30T22:54:07.848Z,99684.00
2019-04-30T22:56:37.167Z,99685.00
2019-04-30T22:59:06.277Z,99687.00
2019-04-30T23:01:43.361Z,99689.00
2019-04-30T23:04:14.364Z,99683.00
2019-04-30T23:06:43.784Z,99680.00
2019-04-30T23:09:13.797Z,99676.00
2019-04-30T23:11:42.889Z,99687.00
2019-04-30T23:14:12.242Z,99680.00
2019-04-30T23:16:41.324Z,99680.00
2019-04-30T23:19:10.808Z,99685.00
2019-04-30T23:21:40.498Z,99681.00
2019-04-30T23:24:09.909Z,99674.00
2019-04-30T23:26:39.051Z,99673.00
2019-04-30T23:29:08.486Z,99669.00
2019-04-30T23:31:38.222Z,99666.00
2019-04-30T23:34:17.461Z,99669.00
2019-04-30T23:36:38.813Z,99667.00
2019-04-30T23:39:09.796Z,99660.00
2019-04-30T23:41:39.240Z,99664.00
2019-04-30T23:44:08.611Z,99650.00
2019-04-30T23:46:38.095Z,99651.00
2019-04-30T23:49:07.294Z,99648.00
2019-04-30T23:51:36.742Z,99650.00
2019-04-30T23:54:06.253Z,99643.00
2019-04-30T23:56:35.433Z,99641.00
2019-04-30T23:59:05.034Z,99635.00
